Impacts TAF Board
For situational awareness. Not to be used for flight planning purposes.
IDs:

KPBI - Palm Beach Intl, FL, US

Issued at 1720 UTC 21 Sep 2021
Updated at 2055 UTC 21 Sep 2021
Potential Impact None Slight Moderate High
Time2053Z 21/21Z 21/22Z 21/23Z 22/00Z 22/01Z 22/02Z 22/03Z 22/04Z 22/05Z 22/06Z 22/07Z 22/08Z 22/09Z>>
Type OBS PRVL PRVL PRVL PRVL PRVL PRVL PRVL PRVL PRVL PRVL PRVL PRVL PRVL
VIS 10 >6 >6 >6 >6 >6 >6 >6 >6 >6 >6 >6 >6 >6
CIG 160 50 50 50 -- -- -- -- -- -- -- -- -- --
Cover BKN BKN BKN BKN SCT SCT SCT SCT SCT SCT SCT SCT SCT SCT
FltCat VFR VFR VFR VFR VFR VFR VFR VFR VFR VFR VFR VFR VFR VFR
WX -- VCTS VCTS VCTS -- -- -- -- -- -- -- -- -- --
WDir 50 100 100 100 VRB VRB VRB VRB VRB VRB VRB VRB VRB VRB
WSpd 7 10 10 10 5 5 5 5 5 5 5 5 5 5
WGst -- -- -- -- -- -- -- -- -- -- -- -- -- --
Raw TAF
KPBI 211720Z 2118/2218 10010KT P6SM VCTS SCT030CB BKN050
  FM220000 VRB05KT P6SM FEW025 SCT250
  FM221400 12007KT P6SM SCT030 SCT050
  FM221700 16010KT P6SM VCTS SCT030CB BKN050


Raw METAR
KPBI 212053Z 05007KT 10SM SCT020 SCT070 BKN160 28/24 A3002 RMK AO2 SLP166 CB DSNT NE SW-W NW 60003 T02780244 55003 $
KPBI 211953Z 02007KT 10SM SCT013 SCT025 BKN060 28/26 A3002 RMK AO2 RAE35 SLP165 CB DSNT NE S-W P0000 T02780256 $
KPBI 211853Z 03005KT 10SM -RA SCT022 BKN043 BKN080 27/24 A3003 RMK AO2 SLP168 CB DSNT NE E P0003 T02670244 $
KPBI 211846Z 03005KT 10SM -RA SCT022 BKN045 BKN080 27/25 A3003 RMK AO2 CB DSNT NE SE P0003 T02670250 $
KPBI 211753Z 02003KT 10SM -RA BKN026 BKN035 BKN050 27/24 A3003 RMK AO2 SLP170 CB DSNT NE SE P0002 60081 T02670239 10267 20244 58008 $
KPBI 211745Z 02003KT 10SM -RA BKN026 BKN039 BKN070 26/24 A3004 RMK AO2 CB DSNT NE SE P0002 T02610239 $

METAR Board
Radar Display
Forecast Discussion
For situational awareness. Not to be used for flight planning purposes.